Time;durP1;ratioP1;P1;durP2;ratioP2;P2;SDS_P1;SDS_P2;PMS_P1;PMS_P2;Temp;Humidity;BMP_temperature;BMP_pressure;BME280_temperature;BME280_humidity;BME280_pressure;Samples;Min_cycle;Max_cycle;Signal;HPM_P1;HPM_P2
2021/05/21 00:00:48;;;;;;;27.05;5.82;;;;;;;;;;4925122;29;20302;-57
2021/05/21 00:03:15;;;;;;;32.42;6.13;;;;;;;;;;4925601;29;20452;-57
2021/05/21 00:05:42;;;;;;;24.30;4.68;;;;;;;;;;4930105;29;20071;-57
2021/05/21 00:08:10;;;;;;;28.80;5.30;;;;;;;;;;4926535;29;20055;-54
2021/05/21 00:10:37;;;;;;;24.73;6.25;;;;;;;;;;4924157;29;20047;-56
2021/05/21 00:13:04;;;;;;;33.08;6.45;;;;;;;;;;4928415;29;20040;-53
2021/05/21 00:15:30;;;;;;;32.50;6.90;;;;;;;;;;4926016;29;20083;-57
2021/05/21 00:17:57;;;;;;;25.33;5.70;;;;;;;;;;4926711;29;20048;-55
2021/05/21 00:20:25;;;;;;;23.88;6.20;;;;;;;;;;4922619;29;20040;-54
2021/05/21 00:22:52;;;;;;;33.10;6.20;;;;;;;;;;4921149;29;20083;-56
2021/05/21 00:25:19;;;;;;;27.58;6.28;;;;;;;;;;4926413;29;20119;-55
2021/05/21 00:27:46;;;;;;;29.88;6.53;;;;;;;;;;4923270;29;20051;-57
2021/05/21 00:30:12;;;;;;;34.90;6.53;;;;;;;;;;4927789;29;20071;-53
2021/05/21 00:32:39;;;;;;;37.63;6.18;;;;;;;;;;4924423;29;20044;-55
2021/05/21 00:35:09;;;;;;;34.33;6.40;;;;;;;;;;4922705;29;20071;-56
2021/05/21 00:37:35;;;;;;;33.47;6.95;;;;;;;;;;4928003;29;20103;-56
2021/05/21 00:40:03;;;;;;;26.60;5.93;;;;;;;;;;4925003;29;20106;-55
2021/05/21 00:42:30;;;;;;;35.83;7.10;;;;;;;;;;4926428;29;20052;-54
2021/05/21 00:44:57;;;;;;;31.55;7.25;;;;;;;;;;4926582;29;20043;-56
2021/05/21 00:47:23;;;;;;;30.53;7.10;;;;;;;;;;4928184;29;20054;-56
2021/05/21 00:49:50;;;;;;;30.42;6.65;;;;;;;;;;4927645;29;20135;-56
2021/05/21 00:52:17;;;;;;;37.47;7.55;;;;;;;;;;4924643;29;20068;-55
2021/05/21 00:54:44;;;;;;;34.27;7.83;;;;;;;;;;4925797;29;20032;-53
2021/05/21 00:57:12;;;;;;;33.25;7.13;;;;;;;;;;4928542;29;20059;-56
2021/05/21 00:59:38;;;;;;;30.85;6.72;;;;;;;;;;4925364;29;20147;-56
2021/05/21 01:02:06;;;;;;;37.10;7.85;;;;;;;;;;4927180;29;20060;-57
2021/05/21 01:04:34;;;;;;;34.83;7.32;;;;;;;;;;4924587;29;20184;-56
2021/05/21 01:07:04;;;;;;;31.63;6.25;;;;;;;;;;4924797;29;20119;-56
2021/05/21 01:09:31;;;;;;;27.48;7.72;;;;;;;;;;4923244;29;20054;-55
2021/05/21 01:11:59;;;;;;;33.13;7.20;;;;;;;;;;4923272;29;21051;-53
2021/05/21 01:14:25;;;;;;;30.67;7.60;;;;;;;;;;4923112;29;20214;-56
2021/05/21 01:16:52;;;;;;;29.90;7.05;;;;;;;;;;4921342;29;20048;-56
2021/05/21 01:19:19;;;;;;;27.17;6.97;;;;;;;;;;4915635;29;20054;-57
2021/05/21 01:21:46;;;;;;;31.10;7.32;;;;;;;;;;4923312;29;20335;-56
2021/05/21 01:24:14;;;;;;;14.23;4.60;;;;;;;;;;4924999;29;20040;-56
2021/05/21 01:26:41;;;;;;;24.20;6.95;;;;;;;;;;4924141;29;20328;-55
2021/05/21 01:29:08;;;;;;;35.87;7.70;;;;;;;;;;4924118;29;20048;-59
2021/05/21 01:31:35;;;;;;;35.08;7.88;;;;;;;;;;4921207;29;20040;-51
2021/05/21 01:34:03;;;;;;;37.65;7.75;;;;;;;;;;4923209;29;20043;-56
2021/05/21 01:36:30;;;;;;;30.70;7.20;;;;;;;;;;4923659;29;20051;-54
2021/05/21 01:38:58;;;;;;;27.98;6.40;;;;;;;;;;4924112;29;20550;-57
2021/05/21 01:41:25;;;;;;;37.40;7.85;;;;;;;;;;4921668;29;20043;-56
2021/05/21 01:43:54;;;;;;;26.08;6.82;;;;;;;;;;4922841;29;20497;-53
2021/05/21 01:46:22;;;;;;;34.63;7.75;;;;;;;;;;4925104;29;20527;-56
2021/05/21 01:48:49;;;;;;;32.45;7.18;;;;;;;;;;4925106;29;20115;-57
2021/05/21 01:51:16;;;;;;;21.92;7.72;;;;;;;;;;4922882;29;20050;-53
2021/05/21 01:53:42;;;;;;;26.02;7.68;;;;;;;;;;4927289;29;20535;-54
2021/05/21 01:56:09;;;;;;;29.25;7.60;;;;;;;;;;4928397;29;20099;-59
2021/05/21 01:58:36;;;;;;;26.83;6.03;;;;;;;;;;4923543;29;20047;-59
2021/05/21 02:01:03;;;;;;;29.58;7.95;;;;;;;;;;4926097;29;20058;-59
2021/05/21 02:03:31;;;;;;;40.10;8.30;;;;;;;;;;4928846;29;20055;-54
2021/05/21 02:05:58;;;;;;;32.42;7.45;;;;;;;;;;4925706;29;20127;-55
2021/05/21 02:08:25;;;;;;;41.17;8.40;;;;;;;;;;4920445;29;20510;-57
2021/05/21 02:10:52;;;;;;;31.70;8.27;;;;;;;;;;4921595;29;20048;-58
2021/05/21 02:13:19;;;;;;;30.45;8.07;;;;;;;;;;4924635;29;20130;-57
2021/05/21 02:15:46;;;;;;;30.53;7.40;;;;;;;;;;4924257;29;20051;-57
2021/05/21 02:18:14;;;;;;;26.98;8.32;;;;;;;;;;4924694;29;20039;-58
2021/05/21 02:20:41;;;;;;;32.28;7.72;;;;;;;;;;4921923;29;20143;-59
2021/05/21 02:23:10;;;;;;;30.23;8.65;;;;;;;;;;4923636;29;20058;-57
2021/05/21 02:25:38;;;;;;;27.92;7.63;;;;;;;;;;4921317;29;20107;-57
2021/05/21 02:28:05;;;;;;;28.42;8.27;;;;;;;;;;4924646;29;20086;-56
2021/05/21 02:30:32;;;;;;;23.13;7.63;;;;;;;;;;4923246;29;20099;-55
2021/05/21 02:32:58;;;;;;;48.93;9.87;;;;;;;;;;4925213;29;20046;-55
2021/05/21 02:35:25;;;;;;;36.97;8.67;;;;;;;;;;4924058;29;20487;-57
2021/05/21 02:37:52;;;;;;;31.05;8.32;;;;;;;;;;4922954;29;20035;-55
2021/05/21 02:40:20;;;;;;;28.70;8.25;;;;;;;;;;4924461;29;20051;-58
2021/05/21 02:42:47;;;;;;;29.52;8.40;;;;;;;;;;4928310;29;20044;-57
2021/05/21 02:45:14;;;;;;;31.23;8.18;;;;;;;;;;4923361;29;20051;-58
2021/05/21 02:47:42;;;;;;;25.10;7.68;;;;;;;;;;4920509;29;20075;-58
2021/05/21 02:50:08;;;;;;;21.90;7.97;;;;;;;;;;4923801;29;20074;-58
2021/05/21 02:52:35;;;;;;;22.43;5.73;;;;;;;;;;4926362;29;20530;-58
2021/05/21 02:55:03;;;;;;;25.88;7.30;;;;;;;;;;4921637;29;20052;-58
2021/05/21 02:57:30;;;;;;;31.85;9.65;;;;;;;;;;4922998;29;20047;-57
2021/05/21 02:59:57;;;;;;;30.95;8.48;;;;;;;;;;4923913;29;20058;-59
2021/05/21 03:02:25;;;;;;;25.42;8.68;;;;;;;;;;4926573;29;20047;-58
2021/05/21 03:04:53;;;;;;;34.25;8.93;;;;;;;;;;4927143;29;20052;-57
2021/05/21 03:07:19;;;;;;;28.67;9.07;;;;;;;;;;4924811;29;20380;-59
2021/05/21 03:09:46;;;;;;;28.25;9.18;;;;;;;;;;4926264;29;20040;-58
2021/05/21 03:12:13;;;;;;;28.90;9.32;;;;;;;;;;4925906;29;20043;-59
2021/05/21 03:14:40;;;;;;;25.42;8.68;;;;;;;;;;4930305;29;20115;-58
2021/05/21 03:17:07;;;;;;;25.70;9.68;;;;;;;;;;4934248;29;20123;-59
2021/05/21 03:19:33;;;;;;;31.40;9.02;;;;;;;;;;4931895;29;20035;-58
2021/05/21 03:22:02;;;;;;;36.60;9.82;;;;;;;;;;4923750;29;20044;-57
2021/05/21 03:24:31;;;;;;;28.08;9.48;;;;;;;;;;4924545;29;20463;-59
2021/05/21 03:26:58;;;;;;;37.58;9.95;;;;;;;;;;4925229;29;20127;-57
2021/05/21 03:29:25;;;;;;;27.50;9.38;;;;;;;;;;4925797;29;20044;-56
2021/05/21 03:31:52;;;;;;;32.67;9.35;;;;;;;;;;4927564;29;20118;-58
2021/05/21 03:34:19;;;;;;;25.10;8.32;;;;;;;;;;4926498;29;20054;-59
2021/05/21 03:36:46;;;;;;;31.83;7.60;;;;;;;;;;4929484;29;20088;-58
2021/05/21 03:39:14;;;;;;;26.33;6.63;;;;;;;;;;4930268;29;20379;-59
2021/05/21 03:41:42;;;;;;;20.40;7.93;;;;;;;;;;4927185;29;20052;-57
2021/05/21 03:44:09;;;;;;;21.10;7.43;;;;;;;;;;4926790;29;20044;-56
2021/05/21 03:46:36;;;;;;;23.85;7.68;;;;;;;;;;4926535;29;20063;-59
2021/05/21 03:49:02;;;;;;;31.03;7.60;;;;;;;;;;4927712;29;20689;-59
2021/05/21 03:51:30;;;;;;;18.88;7.32;;;;;;;;;;4925367;29;20082;-59
2021/05/21 03:53:58;;;;;;;24.20;6.60;;;;;;;;;;4929910;29;20052;-57
2021/05/21 03:56:24;;;;;;;15.88;5.85;;;;;;;;;;4926724;29;20051;-55
2021/05/21 03:58:51;;;;;;;15.65;5.13;;;;;;;;;;4925125;29;20063;-57
2021/05/21 04:01:18;;;;;;;13.82;4.88;;;;;;;;;;4926722;29;20049;-59
2021/05/21 04:03:45;;;;;;;21.80;4.50;;;;;;;;;;4924656;29;20098;-57
2021/05/21 04:06:11;;;;;;;11.73;3.92;;;;;;;;;;4924669;29;20039;-56
2021/05/21 04:08:39;;;;;;;21.52;4.68;;;;;;;;;;4930464;29;20408;-57
2021/05/21 04:11:05;;;;;;;9.80;4.20;;;;;;;;;;4926556;29;20127;-57
2021/05/21 04:13:32;;;;;;;15.43;4.25;;;;;;;;;;4924752;29;20563;-55
2021/05/21 04:15:58;;;;;;;16.55;3.88;;;;;;;;;;4922964;29;20071;-57
2021/05/21 04:18:26;;;;;;;10.15;3.60;;;;;;;;;;4923716;28;20115;-58
2021/05/21 04:20:53;;;;;;;13.03;3.80;;;;;;;;;;4927541;29;20067;-57
2021/05/21 04:23:20;;;;;;;11.20;3.55;;;;;;;;;;4913945;29;20310;-57
2021/05/21 04:25:49;;;;;;;10.57;3.30;;;;;;;;;;4928588;29;20348;-57
2021/05/21 04:28:15;;;;;;;9.02;3.40;;;;;;;;;;4927829;29;20043;-58
2021/05/21 04:30:42;;;;;;;6.80;3.50;;;;;;;;;;4927216;29;20059;-55
2021/05/21 04:33:12;;;;;;;11.35;3.30;;;;;;;;;;4928645;29;21904;-57
2021/05/21 04:35:38;;;;;;;14.55;3.50;;;;;;;;;;4924596;29;20451;-57
2021/05/21 04:38:06;;;;;;;;;;;;;;;;;;4923878;29;20048;-58
2021/05/21 04:40:33;;;;;;;7.72;3.15;;;;;;;;;;4922578;29;19927;-58
2021/05/21 04:42:59;;;;;;;6.40;2.80;;;;;;;;;;4927787;29;20046;-57
2021/05/21 04:45:26;;;;;;;6.20;2.90;;;;;;;;;;4925868;29;20079;-56
2021/05/21 04:47:53;;;;;;;9.10;3.23;;;;;;;;;;4929486;29;20036;-57
2021/05/21 04:50:21;;;;;;;11.75;3.53;;;;;;;;;;4910913;29;20043;-59
2021/05/21 04:52:49;;;;;;;11.18;3.92;;;;;;;;;;4932017;29;20044;-56
2021/05/21 04:55:15;;;;;;;;;;;;;;;;;;4923916;29;20490;-57
2021/05/21 04:57:49;;;;;;;15.52;3.42;;;;;;;;;;4926501;29;20009;-57
2021/05/21 05:00:17;;;;;;;9.52;3.42;;;;;;;;;;4926251;29;20051;-58
2021/05/21 05:02:43;;;;;;;10.07;3.45;;;;;;;;;;4926868;29;20815;-57
2021/05/21 05:05:10;;;;;;;9.15;3.45;;;;;;;;;;4926193;29;20047;-58
2021/05/21 05:07:37;;;;;;;9.38;2.85;;;;;;;;;;4919679;29;20046;-57
2021/05/21 05:10:04;;;;;;;11.27;3.55;;;;;;;;;;4918759;29;20134;-56
2021/05/21 05:12:31;;;;;;;8.50;3.35;;;;;;;;;;4919661;29;20040;-60
2021/05/21 05:14:58;;;;;;;10.32;3.72;;;;;;;;;;4925142;29;20043;-58
2021/05/21 05:17:24;;;;;;;14.05;3.20;;;;;;;;;;4917058;29;20052;-59
2021/05/21 05:19:51;;;;;;;9.23;3.50;;;;;;;;;;4921319;29;20052;-58
2021/05/21 05:22:18;;;;;;;10.90;3.30;;;;;;;;;;4924205;29;20142;-58
2021/05/21 05:24:45;;;;;;;12.93;3.40;;;;;;;;;;4927350;29;20036;-59
2021/05/21 05:27:11;;;;;;;14.88;3.92;;;;;;;;;;4923164;29;20083;-56
2021/05/21 05:29:45;;;;;;;10.07;3.35;;;;;;;;;;4913672;29;20048;-55
2021/05/21 05:32:11;;;;;;;9.70;3.22;;;;;;;;;;4930734;29;20103;-52
2021/05/21 05:34:38;;;;;;;12.38;3.58;;;;;;;;;;4928718;29;20044;-59
2021/05/21 05:37:05;;;;;;;9.73;3.67;;;;;;;;;;4926831;29;20546;-57
2021/05/21 05:39:32;;;;;;;10.13;3.23;;;;;;;;;;4927449;29;20139;-56
2021/05/21 05:41:59;;;;;;;13.52;3.22;;;;;;;;;;4926911;29;20307;-57
2021/05/21 05:44:25;;;;;;;8.60;3.22;;;;;;;;;;4926534;29;20181;-58
2021/05/21 05:46:52;;;;;;;7.30;2.80;;;;;;;;;;4926618;29;20047;-58
2021/05/21 05:49:19;;;;;;;11.80;3.10;;;;;;;;;;4924489;29;20557;-57
2021/05/21 05:51:45;;;;;;;8.30;3.05;;;;;;;;;;4928353;29;20575;-61
2021/05/21 05:54:12;;;;;;;12.18;3.03;;;;;;;;;;4921872;29;20078;-57
2021/05/21 05:56:43;;;;;;;12.40;2.90;;;;;;;;;;4924461;29;20054;-56
2021/05/21 05:59:09;;;;;;;6.72;2.70;;;;;;;;;;4929289;29;20086;-60
2021/05/21 06:01:36;;;;;;;5.60;2.65;;;;;;;;;;4924541;29;20047;-58
2021/05/21 06:04:04;;;;;;;9.88;3.45;;;;;;;;;;4924128;29;20047;-56
2021/05/21 06:06:31;;;;;;;10.43;2.58;;;;;;;;;;4923101;29;20467;-56
2021/05/21 06:08:58;;;;;;;9.82;2.58;;;;;;;;;;4930504;29;20041;-56
2021/05/21 06:11:26;;;;;;;7.57;2.50;;;;;;;;;;4922351;29;20044;-57
2021/05/21 06:13:53;;;;;;;9.95;2.60;;;;;;;;;;4924559;29;20143;-56
2021/05/21 06:16:20;;;;;;;7.32;2.22;;;;;;;;;;4917112;29;20415;-59
2021/05/21 06:18:47;;;;;;;7.47;1.90;;;;;;;;;;4920925;29;20098;-55
2021/05/21 06:21:15;;;;;;;6.60;2.08;;;;;;;;;;4924341;29;20086;-58
2021/05/21 06:23:44;;;;;;;7.28;2.25;;;;;;;;;;4907726;29;20048;-55
2021/05/21 06:28:51;;;;;;;8.00;2.55;;;;;;;;;;4923329;29;20047;-57
2021/05/21 06:31:18;;;;;;;3.92;2.33;;;;;;;;;;4927406;29;20068;-59
2021/05/21 06:33:45;;;;;;;4.25;2.15;;;;;;;;;;4924168;29;20115;-60
2021/05/21 06:36:12;;;;;;;10.10;1.98;;;;;;;;;;4907352;29;20046;-59
2021/05/21 06:38:40;;;;;;;13.52;2.25;;;;;;;;;;4918558;29;20055;-60
2021/05/21 06:41:08;;;;;;;6.57;1.98;;;;;;;;;;4927297;29;20190;-59
2021/05/21 06:43:34;;;;;;;5.60;2.17;;;;;;;;;;4921270;29;20118;-59
2021/05/21 06:46:02;;;;;;;5.15;1.92;;;;;;;;;;4925304;29;20103;-59
2021/05/21 06:48:30;;;;;;;4.40;1.90;;;;;;;;;;4926264;29;20463;-59
2021/05/21 06:50:57;;;;;;;6.80;2.50;;;;;;;;;;4923532;29;20040;-60
2021/05/21 06:53:24;;;;;;;5.35;2.25;;;;;;;;;;4919362;29;20103;-60
2021/05/21 06:55:51;;;;;;;2.93;1.70;;;;;;;;;;4921432;29;20154;-60
2021/05/21 06:58:19;;;;;;;5.57;1.63;;;;;;;;;;4924015;29;20427;-59
2021/05/21 07:00:49;;;;;;;4.60;1.88;;;;;;;;;;4922533;29;20052;-60
2021/05/21 07:03:17;;;;;;;5.35;1.98;;;;;;;;;;4920248;29;20047;-60
2021/05/21 07:05:46;;;;;;;5.32;1.75;;;;;;;;;;4923971;29;20134;-60
2021/05/21 07:08:15;;;;;;;3.75;1.67;;;;;;;;;;4923032;29;20491;-59
2021/05/21 07:10:42;;;;;;;3.75;1.40;;;;;;;;;;4928575;29;20052;-59
2021/05/21 07:13:10;;;;;;;6.63;1.80;;;;;;;;;;4925059;29;20110;-58
2021/05/21 07:15:37;;;;;;;5.57;1.40;;;;;;;;;;4924787;29;20484;-60
2021/05/21 07:18:05;;;;;;;3.70;1.98;;;;;;;;;;4927685;29;20044;-59
2021/05/21 07:20:32;;;;;;;4.95;2.10;;;;;;;;;;4926622;29;20044;-60
2021/05/21 07:22:59;;;;;;;;;;;;;;;;;;4924255;29;20048;-60
2021/05/21 07:25:26;;;;;;;5.00;1.60;;;;;;;;;;4924012;29;19927;-59
2021/05/21 07:27:53;;;;;;;4.95;1.92;;;;;;;;;;4920917;29;20044;-60
2021/05/21 07:30:20;;;;;;;7.53;2.13;;;;;;;;;;4933687;29;20047;-60
2021/05/21 07:32:46;;;;;;;5.38;1.75;;;;;;;;;;4921131;29;20043;-59
2021/05/21 07:35:13;;;;;;;8.20;1.92;;;;;;;;;;4922062;29;20074;-60
2021/05/21 07:37:42;;;;;;;8.35;2.25;;;;;;;;;;4923365;29;20051;-60
2021/05/21 07:40:08;;;;;;;3.75;2.08;;;;;;;;;;4926919;29;20130;-60
2021/05/21 07:42:36;;;;;;;4.07;1.60;;;;;;;;;;4926119;29;20107;-60
2021/05/21 07:45:07;;;;;;;6.45;1.85;;;;;;;;;;4923578;29;20043;-60
2021/05/21 07:47:34;;;;;;;2.72;1.33;;;;;;;;;;4926461;29;20448;-60
2021/05/21 07:50:01;;;;;;;3.22;1.35;;;;;;;;;;4922991;29;20052;-60
2021/05/21 07:52:28;;;;;;;4.63;2.20;;;;;;;;;;4921964;29;20106;-60
2021/05/21 07:54:55;;;;;;;3.42;1.52;;;;;;;;;;4922709;29;20249;-60
2021/05/21 07:57:22;;;;;;;4.20;1.45;;;;;;;;;;4926343;29;20066;-60
2021/05/21 07:59:49;;;;;;;3.47;1.38;;;;;;;;;;4929668;29;20083;-60
2021/05/21 08:02:16;;;;;;;5.63;2.40;;;;;;;;;;4921453;29;20047;-58
2021/05/21 08:04:42;;;;;;;4.65;1.52;;;;;;;;;;4927171;29;20055;-59
2021/05/21 08:07:09;;;;;;;4.32;1.58;;;;;;;;;;4926294;29;20107;-60
2021/05/21 08:09:39;;;;;;;4.03;1.92;;;;;;;;;;4930446;29;20523;-59
2021/05/21 08:12:06;;;;;;;3.88;1.77;;;;;;;;;;4911427;29;20051;-59
2021/05/21 08:14:33;;;;;;;2.50;1.52;;;;;;;;;;4925977;29;20095;-59
2021/05/21 08:16:59;;;;;;;4.32;1.58;;;;;;;;;;4921674;29;20048;-60
2021/05/21 08:19:41;;;;;;;3.83;1.52;;;;;;;;;;4926475;29;20055;-60
2021/05/21 08:22:08;;;;;;;5.60;1.58;;;;;;;;;;4928538;29;20043;-60
2021/05/21 08:24:35;;;;;;;4.43;1.80;;;;;;;;;;4927597;29;20424;-59
2021/05/21 08:27:01;;;;;;;4.97;1.58;;;;;;;;;;4930401;29;20063;-60
2021/05/21 08:29:28;;;;;;;3.67;1.60;;;;;;;;;;4924314;29;20396;-59
2021/05/21 08:32:01;;;;;;;4.18;1.90;;;;;;;;;;4927993;29;20099;-59
2021/05/21 08:34:28;;;;;;;2.03;1.48;;;;;;;;;;4921240;29;20048;-59
2021/05/21 08:36:54;;;;;;;5.13;1.55;;;;;;;;;;4927082;29;20047;-59
2021/05/21 08:39:22;;;;;;;7.28;1.98;;;;;;;;;;4927722;29;20151;-59
2021/05/21 08:41:52;;;;;;;5.75;1.63;;;;;;;;;;4921966;29;20142;-60
2021/05/21 08:44:20;;;;;;;6.45;1.70;;;;;;;;;;4929546;29;20047;-59
2021/05/21 08:46:46;;;;;;;4.63;1.92;;;;;;;;;;4920956;29;20044;-59
2021/05/21 08:49:13;;;;;;;4.63;2.17;;;;;;;;;;4922771;29;20040;-59
2021/05/21 08:51:40;;;;;;;6.25;1.60;;;;;;;;;;4924513;29;20036;-59
2021/05/21 08:54:32;;;;;;;3.83;1.65;;;;;;;;;;4928211;29;20118;-59
2021/05/21 08:56:59;;;;;;;2.65;1.50;;;;;;;;;;4926995;29;20039;-60
2021/05/21 08:59:26;;;;;;;7.95;2.08;;;;;;;;;;4925496;29;20060;-59
2021/05/21 09:01:55;;;;;;;4.03;1.70;;;;;;;;;;4928217;29;20047;-59
2021/05/21 09:04:23;;;;;;;5.15;1.60;;;;;;;;;;4928082;29;20473;-59
2021/05/21 09:06:49;;;;;;;3.35;1.58;;;;;;;;;;4915643;29;20044;-60
2021/05/21 09:09:16;;;;;;;3.43;1.70;;;;;;;;;;4922028;29;20044;-59
2021/05/21 09:11:44;;;;;;;5.38;1.80;;;;;;;;;;4927172;29;20044;-59
2021/05/21 09:14:12;;;;;;;6.90;1.90;;;;;;;;;;4924087;29;20224;-60
2021/05/21 09:16:39;;;;;;;3.70;1.38;;;;;;;;;;4928949;29;20123;-59
2021/05/21 09:19:06;;;;;;;;;;;;;;;;;;4927359;29;20468;-60
2021/05/21 09:21:49;;;;;;;4.88;1.63;;;;;;;;;;4904303;29;19926;-59
2021/05/21 09:24:18;;;;;;;2.13;1.40;;;;;;;;;;4925402;29;20277;-60
2021/05/21 09:26:46;;;;;;;6.80;1.52;;;;;;;;;;4932547;29;20059;-59
2021/05/21 09:29:15;;;;;;;2.33;1.38;;;;;;;;;;4927612;29;20040;-59
2021/05/21 09:31:42;;;;;;;5.38;1.50;;;;;;;;;;4925647;29;20047;-59
2021/05/21 09:34:10;;;;;;;4.55;1.20;;;;;;;;;;4928017;29;20044;-59
2021/05/21 09:36:38;;;;;;;3.08;1.50;;;;;;;;;;4925798;29;20401;-59
2021/05/21 09:39:07;;;;;;;9.73;1.52;;;;;;;;;;4923790;29;20051;-59
2021/05/21 09:41:49;;;;;;;4.65;1.30;;;;;;;;;;4920608;29;20044;-59
2021/05/21 09:44:18;;;;;;;2.92;1.25;;;;;;;;;;4925958;29;20039;-60
2021/05/21 09:46:49;;;;;;;3.28;1.63;;;;;;;;;;4927785;29;20051;-60
2021/05/21 09:49:30;;;;;;;3.58;1.38;;;;;;;;;;4923975;29;20039;-60
2021/05/21 09:51:58;;;;;;;4.03;1.70;;;;;;;;;;4923214;29;20131;-59
2021/05/21 09:54:28;;;;;;;5.60;1.70;;;;;;;;;;4918253;29;20079;-59
2021/05/21 09:57:01;;;;;;;3.63;1.83;;;;;;;;;;4923175;29;20075;-59
2021/05/21 09:59:37;;;;;;;2.58;1.58;;;;;;;;;;4927457;29;20093;-59
2021/05/21 10:02:20;;;;;;;3.38;1.50;;;;;;;;;;4922613;29;20138;-59
2021/05/21 10:04:48;;;;;;;1.98;1.40;;;;;;;;;;4926847;29;20439;-60
2021/05/21 10:07:15;;;;;;;4.15;1.52;;;;;;;;;;4920882;29;20096;-59
2021/05/21 10:09:42;;;;;;;3.60;1.42;;;;;;;;;;4925646;29;20066;-58
2021/05/21 10:12:09;;;;;;;3.83;1.50;;;;;;;;;;4924942;29;20524;-59
2021/05/21 10:14:36;;;;;;;3.13;1.58;;;;;;;;;;4925281;29;20567;-59
2021/05/21 10:17:03;;;;;;;4.47;1.70;;;;;;;;;;4925801;29;20083;-59
2021/05/21 10:19:31;;;;;;;4.00;1.55;;;;;;;;;;4926718;29;20126;-59
2021/05/21 10:21:58;;;;;;;2.33;1.52;;;;;;;;;;4923736;29;20450;-60
2021/05/21 10:24:28;;;;;;;4.78;1.60;;;;;;;;;;4926468;29;20055;-59
2021/05/21 10:26:56;;;;;;;3.28;1.60;;;;;;;;;;4925975;29;20496;-59
2021/05/21 10:29:24;;;;;;;2.38;1.35;;;;;;;;;;4921778;29;20112;-59
2021/05/21 10:31:51;;;;;;;3.15;1.38;;;;;;;;;;4924609;29;20643;-59
2021/05/21 10:34:22;;;;;;;2.72;1.40;;;;;;;;;;4925016;29;20050;-59
2021/05/21 10:37:07;;;;;;;;;;;;;;;;;;4921621;29;20053;-59
2021/05/21 10:39:56;;;;;;;2.40;1.30;;;;;;;;;;4925010;29;19937;-59
2021/05/21 10:42:46;;;;;;;2.85;1.40;;;;;;;;;;4922178;29;20062;-59
2021/05/21 10:45:22;;;;;;;3.05;1.65;;;;;;;;;;4911727;29;20590;-59
2021/05/21 10:47:59;;;;;;;2.47;1.50;;;;;;;;;;4904648;29;20208;-59
2021/05/21 10:50:34;;;;;;;1.67;1.30;;;;;;;;;;4922618;29;20094;-59
2021/05/21 10:53:03;;;;;;;1.38;1.13;;;;;;;;;;4926818;29;20036;-60
2021/05/21 10:55:47;;;;;;;5.72;2.00;;;;;;;;;;4922680;29;20047;-59
2021/05/21 10:58:38;;;;;;;3.42;1.45;;;;;;;;;;4926125;29;20058;-59
2021/05/21 11:01:07;;;;;;;2.72;1.48;;;;;;;;;;4925084;29;20063;-60
2021/05/21 11:03:55;;;;;;;2.97;1.70;;;;;;;;;;4926980;29;20150;-59
2021/05/21 11:06:23;;;;;;;3.80;2.03;;;;;;;;;;4922159;29;20047;-59
2021/05/21 11:08:56;;;;;;;2.92;1.70;;;;;;;;;;4922324;29;20040;-60
2021/05/21 11:11:41;;;;;;;2.30;1.50;;;;;;;;;;4921680;29;20044;-59
2021/05/21 11:14:18;;;;;;;3.78;1.90;;;;;;;;;;4928620;29;20047;-59
2021/05/21 11:16:56;;;;;;;2.55;1.67;;;;;;;;;;4923849;29;20496;-59
2021/05/21 11:19:24;;;;;;;6.03;2.05;;;;;;;;;;4928731;29;20089;-59
2021/05/21 11:22:06;;;;;;;2.13;1.58;;;;;;;;;;4927747;29;20051;-59
2021/05/21 11:24:40;;;;;;;3.35;2.00;;;;;;;;;;4927729;29;20112;-58
2021/05/21 11:27:07;;;;;;;6.47;2.00;;;;;;;;;;4919229;29;20523;-59
2021/05/21 11:29:34;;;;;;;3.05;1.75;;;;;;;;;;4923625;29;20048;-58
2021/05/21 11:32:01;;;;;;;5.57;1.67;;;;;;;;;;4928216;29;20048;-58
2021/05/21 11:34:29;;;;;;;7.75;2.30;;;;;;;;;;4932723;29;20036;-58
2021/05/21 11:36:56;;;;;;;4.93;1.97;;;;;;;;;;4923645;29;20044;-58
2021/05/21 11:39:24;;;;;;;3.23;1.90;;;;;;;;;;4927663;29;20107;-58
2021/05/21 11:41:51;;;;;;;4.85;1.83;;;;;;;;;;4926741;29;20388;-58
2021/05/21 11:44:18;;;;;;;4.15;1.80;;;;;;;;;;4928000;29;20116;-58
2021/05/21 11:46:46;;;;;;;3.30;2.13;;;;;;;;;;4924156;29;20051;-55
2021/05/21 11:49:19;;;;;;;8.15;2.10;;;;;;;;;;4922661;29;20464;-57
2021/05/21 11:51:53;;;;;;;4.15;2.00;;;;;;;;;;4929034;29;20147;-57
2021/05/21 11:54:21;;;;;;;3.50;1.90;;;;;;;;;;4927525;29;20046;-59
2021/05/21 11:56:48;;;;;;;3.40;1.90;;;;;;;;;;4930859;29;20061;-58
2021/05/21 11:59:19;;;;;;;3.55;1.92;;;;;;;;;;4928317;29;20396;-59
2021/05/21 12:01:47;;;;;;;7.50;2.17;;;;;;;;;;4927255;29;20240;-57
2021/05/21 12:04:15;;;;;;;3.55;1.90;;;;;;;;;;4928797;29;20584;-58
2021/05/21 12:06:47;;;;;;;3.70;2.08;;;;;;;;;;4923699;29;20044;-57
2021/05/21 12:09:14;;;;;;;2.45;2.20;;;;;;;;;;4926201;29;20048;-56
2021/05/21 12:11:42;;;;;;;3.08;1.88;;;;;;;;;;4928193;29;20044;-57
2021/05/21 12:14:13;;;;;;;3.90;2.30;;;;;;;;;;4931585;29;20039;-58
2021/05/21 12:16:41;;;;;;;3.53;2.20;;;;;;;;;;4926335;28;20048;-57
2021/05/21 12:19:09;;;;;;;6.28;2.28;;;;;;;;;;4927331;29;20327;-56
2021/05/21 12:21:36;;;;;;;;;;;;;;;;;;4929763;29;20085;-57
2021/05/21 12:24:03;;;;;;;2.35;1.80;;;;;;;;;;4926818;29;20020;-56
2021/05/21 12:26:31;;;;;;;3.63;1.77;;;;;;;;;;4927165;29;20044;-58
2021/05/21 12:28:59;;;;;;;4.10;1.95;;;;;;;;;;4923591;29;20049;-58
2021/05/21 12:31:30;;;;;;;4.38;1.98;;;;;;;;;;4928451;29;20051;-57
2021/05/21 12:33:57;;;;;;;4.97;1.95;;;;;;;;;;4927707;29;20104;-58
2021/05/21 12:36:25;;;;;;;3.08;2.10;;;;;;;;;;4907200;29;20122;-57
2021/05/21 12:38:56;;;;;;;5.25;1.90;;;;;;;;;;4921874;29;20253;-58
2021/05/21 12:41:33;;;;;;;3.72;1.95;;;;;;;;;;4921396;29;20056;-55
2021/05/21 12:44:06;;;;;;;5.85;2.40;;;;;;;;;;4924623;29;20044;-55
2021/05/21 12:46:37;;;;;;;5.88;2.20;;;;;;;;;;4925192;29;20055;-57
2021/05/21 12:49:06;;;;;;;4.03;1.88;;;;;;;;;;4923828;29;20404;-54
2021/05/21 12:51:32;;;;;;;3.45;2.10;;;;;;;;;;4923853;29;20058;-56
2021/05/21 12:54:00;;;;;;;;;;;;;;;;;;4923840;29;20122;-55
2021/05/21 12:56:31;;;;;;;4.97;2.13;;;;;;;;;;4914873;29;19933;-58
2021/05/21 12:59:01;;;;;;;2.25;1.70;;;;;;;;;;4927737;29;20082;-57
2021/05/21 13:01:30;;;;;;;5.75;2.10;;;;;;;;;;4928060;29;20067;-58
2021/05/21 13:03:57;;;;;;;2.97;1.63;;;;;;;;;;4927312;29;20047;-58
2021/05/21 13:06:25;;;;;;;4.30;2.00;;;;;;;;;;4925909;29;20066;-56
2021/05/21 13:08:52;;;;;;;3.10;1.70;;;;;;;;;;4929303;29;20522;-57
2021/05/21 13:11:19;;;;;;;3.83;1.88;;;;;;;;;;4923412;29;20095;-56
2021/05/21 13:13:45;;;;;;;3.28;1.65;;;;;;;;;;4924283;29;20131;-58
2021/05/21 13:16:13;;;;;;;5.53;1.90;;;;;;;;;;4925244;29;20087;-58
2021/05/21 13:18:40;;;;;;;2.53;1.90;;;;;;;;;;4927537;29;20131;-58
2021/05/21 13:21:09;;;;;;;2.95;1.60;;;;;;;;;;4931085;29;20064;-54
2021/05/21 13:23:36;;;;;;;4.93;1.90;;;;;;;;;;4928213;29;20921;-58
2021/05/21 13:26:04;;;;;;;3.70;1.80;;;;;;;;;;4927362;29;20570;-58
2021/05/21 13:28:40;;;;;;;6.07;2.33;;;;;;;;;;4926083;29;20064;-58
2021/05/21 13:31:08;;;;;;;4.00;2.30;;;;;;;;;;4922060;29;20094;-57
2021/05/21 13:33:34;;;;;;;3.08;2.28;;;;;;;;;;4921171;29;20042;-59
2021/05/21 13:36:01;;;;;;;7.15;2.15;;;;;;;;;;4927959;29;20043;-57
2021/05/21 13:38:28;;;;;;;4.15;2.20;;;;;;;;;;4926903;29;20547;-56
2021/05/21 13:40:55;;;;;;;2.90;2.13;;;;;;;;;;4926834;29;20087;-58
2021/05/21 13:43:22;;;;;;;4.33;2.33;;;;;;;;;;4929039;29;20126;-57
2021/05/21 13:45:49;;;;;;;2.67;1.90;;;;;;;;;;4927494;29;20040;-58
2021/05/21 13:48:16;;;;;;;3.00;2.10;;;;;;;;;;4925837;29;20496;-59
2021/05/21 13:50:45;;;;;;;5.30;2.20;;;;;;;;;;4924414;29;20073;-58
2021/05/21 13:53:12;;;;;;;4.72;2.22;;;;;;;;;;4906927;29;20052;-57
2021/05/21 13:55:40;;;;;;;2.10;1.60;;;;;;;;;;4922991;29;20548;-58
2021/05/21 13:58:07;;;;;;;2.80;2.40;;;;;;;;;;4925915;29;20099;-59
2021/05/21 14:00:34;;;;;;;3.15;2.40;;;;;;;;;;4926337;29;20063;-59
2021/05/21 14:03:01;;;;;;;6.03;2.03;;;;;;;;;;4922181;29;20044;-58
2021/05/21 14:05:27;;;;;;;3.40;2.25;;;;;;;;;;4923510;29;20040;-58
2021/05/21 14:07:54;;;;;;;3.33;2.10;;;;;;;;;;4922227;29;20086;-57
2021/05/21 14:10:21;;;;;;;2.50;2.08;;;;;;;;;;4906143;29;20036;-59
2021/05/21 14:12:49;;;;;;;3.25;2.10;;;;;;;;;;4926523;29;20082;-59
2021/05/21 14:15:16;;;;;;;7.25;2.38;;;;;;;;;;4924769;29;20043;-59
2021/05/21 14:17:43;;;;;;;2.80;1.97;;;;;;;;;;4924441;29;20048;-58
2021/05/21 14:20:11;;;;;;;3.30;2.00;;;;;;;;;;4926236;29;20123;-58
2021/05/21 14:22:40;;;;;;;3.65;2.58;;;;;;;;;;4927703;29;20047;-59
2021/05/21 14:25:08;;;;;;;2.20;2.00;;;;;;;;;;4921243;29;20087;-57
2021/05/21 14:27:35;;;;;;;2.25;1.90;;;;;;;;;;4920453;29;20527;-59
2021/05/21 14:30:02;;;;;;;2.92;2.13;;;;;;;;;;4923623;29;20051;-59
2021/05/21 14:32:30;;;;;;;3.78;2.08;;;;;;;;;;4917144;29;20086;-57
2021/05/21 14:34:56;;;;;;;2.97;2.00;;;;;;;;;;4924961;29;20522;-59
2021/05/21 14:37:25;;;;;;;4.20;2.45;;;;;;;;;;4921905;29;20051;-58
2021/05/21 14:39:52;;;;;;;3.40;2.40;;;;;;;;;;4923294;29;20063;-59
2021/05/21 14:42:19;;;;;;;3.03;2.22;;;;;;;;;;4925888;29;20047;-59
2021/05/21 14:44:47;;;;;;;3.47;2.22;;;;;;;;;;4924783;29;20427;-58
2021/05/21 14:47:14;;;;;;;3.92;2.05;;;;;;;;;;4924870;29;20103;-59
2021/05/21 14:49:41;;;;;;;3.95;2.22;;;;;;;;;;4919536;29;20033;-59